sensor_id;sensor_type;location;lat;lon;timestamp;pressure;altitude;pressure_sealevel;temperature;humidity
51715;BME280;39115;59.332;18.034;2023-02-21T00:01:13;98616.47;;;-0.01;70.24
51715;BME280;39115;59.332;18.034;2023-02-21T00:03:52;98622.78;;;-0.03;70.62
51715;BME280;39115;59.332;18.034;2023-02-21T00:06:31;98618.50;;;-0.04;70.64
51715;BME280;39115;59.332;18.034;2023-02-21T00:09:10;98620.38;;;-0.06;70.56
51715;BME280;39115;59.332;18.034;2023-02-21T00:11:49;98626.56;;;-0.07;70.75
51715;BME280;39115;59.332;18.034;2023-02-21T00:14:28;98639.66;;;-0.07;70.76
51715;BME280;39115;59.332;18.034;2023-02-21T00:17:07;98630.16;;;-0.08;70.41
51715;BME280;39115;59.332;18.034;2023-02-21T00:19:46;98645.00;;;-0.09;70.37
51715;BME280;39115;59.332;18.034;2023-02-21T00:22:25;98646.69;;;-0.08;70.55
51715;BME280;39115;59.332;18.034;2023-02-21T00:25:04;98650.13;;;-0.07;70.75
51715;BME280;39115;59.332;18.034;2023-02-21T00:27:44;98644.06;;;-0.08;70.73
51715;BME280;39115;59.332;18.034;2023-02-21T00:30:23;98651.09;;;-0.08;70.83
51715;BME280;39115;59.332;18.034;2023-02-21T00:33:02;98658.94;;;-0.08;70.72
51715;BME280;39115;59.332;18.034;2023-02-21T00:35:41;98644.41;;;-0.12;70.69
51715;BME280;39115;59.332;18.034;2023-02-21T00:38:20;98653.19;;;-0.13;70.81
51715;BME280;39115;59.332;18.034;2023-02-21T00:40:59;98664.63;;;-0.14;70.70
51715;BME280;39115;59.332;18.034;2023-02-21T00:43:38;98664.63;;;-0.14;70.85
51715;BME280;39115;59.332;18.034;2023-02-21T00:46:17;98678.63;;;-0.16;70.83
51715;BME280;39115;59.332;18.034;2023-02-21T00:48:56;98687.47;;;-0.17;70.71
51715;BME280;39115;59.332;18.034;2023-02-21T00:51:35;98691.84;;;-0.17;70.73
51715;BME280;39115;59.332;18.034;2023-02-21T00:54:14;98691.13;;;-0.19;71.36
51715;BME280;39115;59.332;18.034;2023-02-21T00:56:53;98702.44;;;-0.19;71.12
51715;BME280;39115;59.332;18.034;2023-02-21T00:59:32;98702.31;;;-0.17;71.01
51715;BME280;39115;59.332;18.034;2023-02-21T01:02:11;98709.06;;;-0.14;70.99
51715;BME280;39115;59.332;18.034;2023-02-21T01:04:50;98713.50;;;-0.15;71.26
51715;BME280;39115;59.332;18.034;2023-02-21T01:07:29;98718.72;;;-0.15;70.99
51715;BME280;39115;59.332;18.034;2023-02-21T01:10:08;98721.47;;;-0.17;71.15
51715;BME280;39115;59.332;18.034;2023-02-21T01:12:47;98728.31;;;-0.16;71.39
51715;BME280;39115;59.332;18.034;2023-02-21T01:15:26;98745.09;;;-0.18;71.11
51715;BME280;39115;59.332;18.034;2023-02-21T01:18:05;98749.03;;;-0.24;70.81
51715;BME280;39115;59.332;18.034;2023-02-21T01:20:44;98752.59;;;-0.25;71.43
51715;BME280;39115;59.332;18.034;2023-02-21T01:23:23;98766.34;;;-0.23;70.98
51715;BME280;39115;59.332;18.034;2023-02-21T01:26:02;98768.97;;;-0.23;71.01
51715;BME280;39115;59.332;18.034;2023-02-21T01:28:41;98775.06;;;-0.22;71.27
51715;BME280;39115;59.332;18.034;2023-02-21T01:31:21;98786.25;;;-0.20;71.27
51715;BME280;39115;59.332;18.034;2023-02-21T01:34:00;98790.50;;;-0.19;71.68
51715;BME280;39115;59.332;18.034;2023-02-21T01:36:40;98799.31;;;-0.20;71.37
51715;BME280;39115;59.332;18.034;2023-02-21T01:39:19;98804.53;;;-0.20;71.20
51715;BME280;39115;59.332;18.034;2023-02-21T01:41:59;98809.78;;;-0.20;71.46
51715;BME280;39115;59.332;18.034;2023-02-21T01:44:43;98813.22;;;-0.20;71.47
51715;BME280;39115;59.332;18.034;2023-02-21T01:47:22;98823.56;;;-0.18;71.47
51715;BME280;39115;59.332;18.034;2023-02-21T01:50:09;98832.94;;;-0.16;71.67
51715;BME280;39115;59.332;18.034;2023-02-21T01:52:49;98837.34;;;-0.16;71.55
51715;BME280;39115;59.332;18.034;2023-02-21T01:55:28;98834.75;;;-0.16;71.64
51715;BME280;39115;59.332;18.034;2023-02-21T01:58:07;98839.97;;;-0.16;71.72
51715;BME280;39115;59.332;18.034;2023-02-21T02:00:47;98854.72;;;-0.15;71.70
51715;BME280;39115;59.332;18.034;2023-02-21T02:03:26;98862.16;;;-0.22;71.61
51715;BME280;39115;59.332;18.034;2023-02-21T02:06:11;98859.19;;;-0.28;71.49
51715;BME280;39115;59.332;18.034;2023-02-21T02:08:51;98857.50;;;-0.29;71.97
51715;BME280;39115;59.332;18.034;2023-02-21T02:12:05;98868.72;;;-0.27;71.73
51715;BME280;39115;59.332;18.034;2023-02-21T02:25:31;98893.09;;;-0.16;71.73
51715;BME280;39115;59.332;18.034;2023-02-21T02:31:23;98907.66;;;-0.11;71.91
51715;BME280;39115;59.332;18.034;2023-02-21T02:36:15;98908.47;;;-0.11;71.87
51715;BME280;39115;59.332;18.034;2023-02-21T02:39:44;98912.66;;;-0.08;71.52
51715;BME280;39115;59.332;18.034;2023-02-21T02:42:07;98920.41;;;-0.07;71.56
51715;BME280;39115;59.332;18.034;2023-02-21T02:44:41;98927.31;;;-0.06;71.92
51715;BME280;39115;59.332;18.034;2023-02-21T02:47:07;98927.19;;;-0.04;71.60
51715;BME280;39115;59.332;18.034;2023-02-21T02:49:30;98933.97;;;-0.02;71.90
51715;BME280;39115;59.332;18.034;2023-02-21T02:51:53;98936.50;;;0.00;72.04
51715;BME280;39115;59.332;18.034;2023-02-21T02:54:14;98939.09;;;0.00;71.95
51715;BME280;39115;59.332;18.034;2023-02-21T02:56:34;98956.44;;;0.01;72.10
51715;BME280;39115;59.332;18.034;2023-02-21T02:59:03;98958.13;;;0.02;71.96
51715;BME280;39115;59.332;18.034;2023-02-21T03:09:37;98961.59;;;0.03;71.62
51715;BME280;39115;59.332;18.034;2023-02-21T03:12:20;98965.16;;;0.02;71.68
51715;BME280;39115;59.332;18.034;2023-02-21T03:14:50;98967.78;;;0.02;71.86
51715;BME280;39115;59.332;18.034;2023-02-21T03:17:15;98983.47;;;0.02;71.90
51715;BME280;39115;59.332;18.034;2023-02-21T03:19:41;98992.38;;;-0.01;71.72
51715;BME280;39115;59.332;18.034;2023-02-21T03:22:13;98998.44;;;-0.01;72.30
51715;BME280;39115;59.332;18.034;2023-02-21T03:24:34;99003.66;;;-0.01;72.10
51715;BME280;39115;59.332;18.034;2023-02-21T03:27:02;99018.41;;;0.01;72.21
51715;BME280;39115;59.332;18.034;2023-02-21T03:29:24;99029.00;;;-0.01;71.86
51715;BME280;39115;59.332;18.034;2023-02-21T03:31:57;99044.78;;;-0.03;72.03
51715;BME280;39115;59.332;18.034;2023-02-21T03:34:19;99050.13;;;-0.04;72.26
51715;BME280;39115;59.332;18.034;2023-02-21T03:36:41;99055.38;;;-0.04;72.23
51715;BME280;39115;59.332;18.034;2023-02-21T03:39:02;99053.50;;;-0.02;72.23
51715;BME280;39115;59.332;18.034;2023-02-21T03:41:23;99050.03;;;-0.03;72.08
51715;BME280;39115;59.332;18.034;2023-02-21T03:43:43;99061.22;;;-0.01;72.20
51715;BME280;39115;59.332;18.034;2023-02-21T03:46:04;99065.50;;;0.01;72.35
51715;BME280;39115;59.332;18.034;2023-02-21T03:48:24;99075.25;;;-0.02;72.49
51715;BME280;39115;59.332;18.034;2023-02-21T03:50:45;99083.00;;;0.00;72.35
51715;BME280;39115;59.332;18.034;2023-02-21T03:53:05;99080.47;;;-0.02;72.29
51715;BME280;39115;59.332;18.034;2023-02-21T03:55:26;99083.94;;;-0.01;72.37
51715;BME280;39115;59.332;18.034;2023-02-21T03:57:46;99094.41;;;-0.01;72.40
51715;BME280;39115;59.332;18.034;2023-02-21T04:00:07;99108.31;;;-0.01;72.59
51715;BME280;39115;59.332;18.034;2023-02-21T04:02:28;99108.88;;;-0.08;72.37
51715;BME280;39115;59.332;18.034;2023-02-21T04:04:49;99110.13;;;-0.14;72.52
51715;BME280;39115;59.332;18.034;2023-02-21T04:07:10;99109.25;;;-0.14;72.73
51715;BME280;39115;59.332;18.034;2023-02-21T04:09:31;99116.50;;;-0.18;72.48
51715;BME280;39115;59.332;18.034;2023-02-21T04:11:51;99121.22;;;-0.23;72.47
51715;BME280;39115;59.332;18.034;2023-02-21T04:14:12;99127.50;;;-0.26;72.85
51715;BME280;39115;59.332;18.034;2023-02-21T04:16:33;99130.84;;;-0.24;72.81
51715;BME280;39115;59.332;18.034;2023-02-21T04:18:54;99137.03;;;-0.25;72.68
51715;BME280;39115;59.332;18.034;2023-02-21T04:21:17;99139.53;;;-0.23;72.54
51715;BME280;39115;59.332;18.034;2023-02-21T04:23:38;99141.19;;;-0.22;72.70
51715;BME280;39115;59.332;18.034;2023-02-21T04:25:59;99146.19;;;-0.19;72.59
51715;BME280;39115;59.332;18.034;2023-02-21T04:28:19;99153.03;;;-0.17;72.83
51715;BME280;39115;59.332;18.034;2023-02-21T04:30:40;99162.53;;;-0.16;72.78
51715;BME280;39115;59.332;18.034;2023-02-21T04:33:00;99166.72;;;-0.13;72.75
51715;BME280;39115;59.332;18.034;2023-02-21T04:35:22;99171.84;;;-0.11;72.75
51715;BME280;39115;59.332;18.034;2023-02-21T04:37:43;99177.81;;;-0.09;72.71
51715;BME280;39115;59.332;18.034;2023-02-21T04:40:06;99181.16;;;-0.07;72.68
51715;BME280;39115;59.332;18.034;2023-02-21T04:42:27;99186.38;;;-0.07;72.87
51715;BME280;39115;59.332;18.034;2023-02-21T04:44:48;99189.63;;;-0.04;72.88
51715;BME280;39115;59.332;18.034;2023-02-21T04:47:08;99205.22;;;-0.02;72.53
51715;BME280;39115;59.332;18.034;2023-02-21T04:49:29;99212.22;;;-0.03;72.81
51715;BME280;39115;59.332;18.034;2023-02-21T04:51:50;99220.19;;;-0.04;72.83
51715;BME280;39115;59.332;18.034;2023-02-21T04:54:10;99227.28;;;-0.06;72.63
51715;BME280;39115;59.332;18.034;2023-02-21T04:56:30;99234.31;;;-0.07;73.01
51715;BME280;39115;59.332;18.034;2023-02-21T04:58:51;99243.75;;;-0.04;72.85
51715;BME280;39115;59.332;18.034;2023-02-21T05:01:14;99243.09;;;-0.08;72.93
51715;BME280;39115;59.332;18.034;2023-02-21T05:03:34;99250.13;;;-0.08;72.67
51715;BME280;39115;59.332;18.034;2023-02-21T05:05:55;99254.41;;;-0.07;72.81
51715;BME280;39115;59.332;18.034;2023-02-21T05:08:15;99256.81;;;-0.04;72.72
51715;BME280;39115;59.332;18.034;2023-02-21T05:10:36;99267.16;;;-0.03;72.71
51715;BME280;39115;59.332;18.034;2023-02-21T05:12:56;99272.41;;;-0.03;72.59
51715;BME280;39115;59.332;18.034;2023-02-21T05:15:17;99270.72;;;-0.04;72.83
51715;BME280;39115;59.332;18.034;2023-02-21T05:17:37;99289.91;;;-0.03;72.45
51715;BME280;39115;59.332;18.034;2023-02-21T05:19:58;99290.00;;;-0.05;72.83
51715;BME280;39115;59.332;18.034;2023-02-21T05:22:19;99295.94;;;-0.03;73.01
51715;BME280;39115;59.332;18.034;2023-02-21T05:24:41;99292.31;;;0.00;72.75
51715;BME280;39115;59.332;18.034;2023-02-21T05:27:01;99295.66;;;0.02;72.93
51715;BME280;39115;59.332;18.034;2023-02-21T05:29:22;99292.22;;;0.02;72.86
51715;BME280;39115;59.332;18.034;2023-02-21T05:31:44;99300.69;;;0.05;72.96
51715;BME280;39115;59.332;18.034;2023-02-21T05:34:04;99304.03;;;0.07;72.54
51715;BME280;39115;59.332;18.034;2023-02-21T05:36:25;99305.63;;;0.10;72.75
51715;BME280;39115;59.332;18.034;2023-02-21T05:38:48;99303.81;;;0.10;72.85
51715;BME280;39115;59.332;18.034;2023-02-21T05:41:09;99318.41;;;0.14;72.75
51715;BME280;39115;59.332;18.034;2023-02-21T05:43:29;99320.78;;;0.18;72.60
51715;BME280;39115;59.332;18.034;2023-02-21T05:45:52;99322.28;;;0.22;72.63
51715;BME280;39115;59.332;18.034;2023-02-21T05:48:13;99328.13;;;0.25;72.63
51715;BME280;39115;59.332;18.034;2023-02-21T05:50:34;99329.81;;;0.26;72.52
51715;BME280;39115;59.332;18.034;2023-02-21T05:52:56;99331.47;;;0.27;72.37
51715;BME280;39115;59.332;18.034;2023-02-21T05:55:17;99331.38;;;0.29;72.66
51715;BME280;39115;59.332;18.034;2023-02-21T05:57:38;99338.31;;;0.30;72.65
51715;BME280;39115;59.332;18.034;2023-02-21T05:59:59;99345.09;;;0.33;72.35
51715;BME280;39115;59.332;18.034;2023-02-21T06:02:19;99345.84;;;0.35;72.33
51715;BME280;39115;59.332;18.034;2023-02-21T06:04:40;99346.78;;;0.34;72.38
51715;BME280;39115;59.332;18.034;2023-02-21T06:07:00;99360.59;;;0.36;72.50
51715;BME280;39115;59.332;18.034;2023-02-21T06:09:21;99357.88;;;0.37;72.46
51715;BME280;39115;59.332;18.034;2023-02-21T06:11:41;99368.25;;;0.39;72.39
51715;BME280;39115;59.332;18.034;2023-02-21T06:14:04;99367.31;;;0.40;72.34
51715;BME280;39115;59.332;18.034;2023-02-21T06:16:25;99381.03;;;0.43;72.24
51715;BME280;39115;59.332;18.034;2023-02-21T06:18:53;99385.22;;;0.46;72.29
51715;BME280;39115;59.332;18.034;2023-02-21T06:21:14;99382.59;;;0.46;72.46
51715;BME280;39115;59.332;18.034;2023-02-21T06:23:34;99386.06;;;0.46;72.23
51715;BME280;39115;59.332;18.034;2023-02-21T06:25:54;99391.19;;;0.48;72.63
51715;BME280;39115;59.332;18.034;2023-02-21T06:28:15;99399.81;;;0.50;72.31
51715;BME280;39115;59.332;18.034;2023-02-21T06:30:35;99402.31;;;0.52;72.30
51715;BME280;39115;59.332;18.034;2023-02-21T06:32:56;99400.50;;;0.52;72.27
51715;BME280;39115;59.332;18.034;2023-02-21T06:35:16;99410.06;;;0.53;72.39
51715;BME280;39115;59.332;18.034;2023-02-21T06:37:37;99430.81;;;0.56;72.60
51715;BME280;39115;59.332;18.034;2023-02-21T06:39:58;99433.31;;;0.58;72.67
51715;BME280;39115;59.332;18.034;2023-02-21T06:42:18;99437.63;;;0.59;72.48
51715;BME280;39115;59.332;18.034;2023-02-21T06:44:42;99446.28;;;0.59;72.36
51715;BME280;39115;59.332;18.034;2023-02-21T06:47:03;99447.97;;;0.60;72.42
51715;BME280;39115;59.332;18.034;2023-02-21T06:49:23;99461.00;;;0.62;72.37
51715;BME280;39115;59.332;18.034;2023-02-21T06:51:44;99472.28;;;0.62;72.35
51715;BME280;39115;59.332;18.034;2023-02-21T06:54:05;99483.59;;;0.63;72.63
51715;BME280;39115;59.332;18.034;2023-02-21T06:56:27;99490.53;;;0.64;72.52
51715;BME280;39115;59.332;18.034;2023-02-21T06:58:47;99501.63;;;0.68;72.11
51715;BME280;39115;59.332;18.034;2023-02-21T07:01:08;99507.81;;;0.67;72.68
51715;BME280;39115;59.332;18.034;2023-02-21T07:03:28;99517.47;;;0.66;72.63
51715;BME280;39115;59.332;18.034;2023-02-21T07:05:49;99515.66;;;0.67;72.45
51715;BME280;39115;59.332;18.034;2023-02-21T07:08:09;99525.22;;;0.68;72.63
51715;BME280;39115;59.332;18.034;2023-02-21T07:10:30;99533.81;;;0.70;72.97
51715;BME280;39115;59.332;18.034;2023-02-21T07:12:51;99547.66;;;0.72;72.68
51715;BME280;39115;59.332;18.034;2023-02-21T07:15:11;99552.78;;;0.73;72.53
51715;BME280;39115;59.332;18.034;2023-02-21T07:17:32;99565.88;;;0.73;72.38
51715;BME280;39115;59.332;18.034;2023-02-21T07:19:52;99575.53;;;0.73;72.58
51715;BME280;39115;59.332;18.034;2023-02-21T07:22:13;99577.09;;;0.75;72.62
51715;BME280;39115;59.332;18.034;2023-02-21T07:24:33;99592.59;;;0.78;72.60
51715;BME280;39115;59.332;18.034;2023-02-21T07:26:54;99597.97;;;0.77;72.89
51715;BME280;39115;59.332;18.034;2023-02-21T07:29:14;99616.50;;;0.74;72.90
51715;BME280;39115;59.332;18.034;2023-02-21T07:31:36;99627.06;;;0.72;72.68
51715;BME280;39115;59.332;18.034;2023-02-21T07:33:57;99642.78;;;0.72;73.09
51715;BME280;39115;59.332;18.034;2023-02-21T07:36:18;99649.91;;;0.70;72.96
51715;BME280;39115;59.332;18.034;2023-02-21T07:38:38;99670.03;;;0.70;72.69
51715;BME280;39115;59.332;18.034;2023-02-21T07:41:01;99668.44;;;0.67;73.12
51715;BME280;39115;59.332;18.034;2023-02-21T07:43:24;99681.53;;;0.67;73.42
51715;BME280;39115;59.332;18.034;2023-02-21T07:45:45;99688.53;;;0.67;73.36
51715;BME280;39115;59.332;18.034;2023-02-21T07:48:05;99695.47;;;0.68;73.23
51715;BME280;39115;59.332;18.034;2023-02-21T07:50:26;99707.63;;;0.69;73.19
51715;BME280;39115;59.332;18.034;2023-02-21T07:52:46;99712.06;;;0.68;73.24
51715;BME280;39115;59.332;18.034;2023-02-21T07:55:07;99717.06;;;0.71;73.37
51715;BME280;39115;59.332;18.034;2023-02-21T07:57:27;99724.66;;;0.76;73.45
51715;BME280;39115;59.332;18.034;2023-02-21T07:59:48;99737.56;;;0.79;73.49
51715;BME280;39115;59.332;18.034;2023-02-21T08:02:10;99737.47;;;0.81;73.48
51715;BME280;39115;59.332;18.034;2023-02-21T08:04:31;99750.28;;;0.85;73.38
51715;BME280;39115;59.332;18.034;2023-02-21T08:06:58;99754.41;;;0.89;73.24
51715;BME280;39115;59.332;18.034;2023-02-21T08:09:19;99767.19;;;0.94;73.40
51715;BME280;39115;59.332;18.034;2023-02-21T08:11:41;99768.59;;;1.00;73.18
51715;BME280;39115;59.332;18.034;2023-02-21T08:14:03;99778.88;;;1.03;73.40
51715;BME280;39115;59.332;18.034;2023-02-21T08:16:23;99790.84;;;1.07;73.61
51715;BME280;39115;59.332;18.034;2023-02-21T08:18:46;99797.59;;;1.11;73.19
51715;BME280;39115;59.332;18.034;2023-02-21T08:21:09;99796.44;;;1.15;73.21
51715;BME280;39115;59.332;18.034;2023-02-21T08:23:30;99809.25;;;1.20;73.45
51715;BME280;39115;59.332;18.034;2023-02-21T08:25:50;99812.34;;;1.26;73.20
51715;BME280;39115;59.332;18.034;2023-02-21T08:28:11;99823.56;;;1.29;73.31
51715;BME280;39115;59.332;18.034;2023-02-21T08:30:32;99831.34;;;1.30;73.20
51715;BME280;39115;59.332;18.034;2023-02-21T08:32:53;99840.78;;;1.33;73.03
51715;BME280;39115;59.332;18.034;2023-02-21T08:35:14;99844.25;;;1.33;73.09
51715;BME280;39115;59.332;18.034;2023-02-21T08:37:35;99847.50;;;1.37;73.13
51715;BME280;39115;59.332;18.034;2023-02-21T08:39:56;99856.03;;;1.40;72.98
51715;BME280;39115;59.332;18.034;2023-02-21T08:42:20;99859.22;;;1.46;73.12
51715;BME280;39115;59.332;18.034;2023-02-21T08:44:45;99868.78;;;1.47;73.08
51715;BME280;39115;59.332;18.034;2023-02-21T08:47:05;99879.16;;;1.48;72.93
51715;BME280;39115;59.332;18.034;2023-02-21T08:49:26;99885.25;;;1.49;72.78
51715;BME280;39115;59.332;18.034;2023-02-21T08:51:46;99898.06;;;1.53;72.85
51715;BME280;39115;59.332;18.034;2023-02-21T08:54:07;99895.03;;;1.60;72.36
51715;BME280;39115;59.332;18.034;2023-02-21T08:56:27;99903.47;;;1.65;72.53
51715;BME280;39115;59.332;18.034;2023-02-21T08:58:48;99915.38;;;1.70;72.19
51715;BME280;39115;59.332;18.034;2023-02-21T09:01:09;99923.91;;;1.74;72.43
51715;BME280;39115;59.332;18.034;2023-02-21T09:03:30;99925.25;;;1.80;72.35
51715;BME280;39115;59.332;18.034;2023-02-21T09:05:50;99936.03;;;1.89;72.23
51715;BME280;39115;59.332;18.034;2023-02-21T09:08:11;99937.69;;;1.90;72.20
51715;BME280;39115;59.332;18.034;2023-02-21T09:10:32;99938.44;;;1.93;72.44
51715;BME280;39115;59.332;18.034;2023-02-21T09:12:55;99953.06;;;1.97;72.16
51715;BME280;39115;59.332;18.034;2023-02-21T09:15:16;99960.00;;;1.98;72.10
51715;BME280;39115;59.332;18.034;2023-02-21T09:17:37;99970.81;;;1.93;72.11
51715;BME280;39115;59.332;18.034;2023-02-21T09:19:57;99976.22;;;1.90;72.17
51715;BME280;39115;59.332;18.034;2023-02-21T09:22:18;99978.22;;;1.86;71.88
51715;BME280;39115;59.332;18.034;2023-02-21T09:24:40;99984.78;;;1.79;71.85
51715;BME280;39115;59.332;18.034;2023-02-21T09:27:01;99999.03;;;1.75;72.01
51715;BME280;39115;59.332;18.034;2023-02-21T09:29:25;100009.63;;;1.73;72.12
51715;BME280;39115;59.332;18.034;2023-02-21T09:31:45;100013.00;;;1.76;71.94
51715;BME280;39115;59.332;18.034;2023-02-21T09:34:06;100014.88;;;1.73;71.91
51715;BME280;39115;59.332;18.034;2023-02-21T09:36:27;100018.25;;;1.76;71.79
51715;BME280;39115;59.332;18.034;2023-02-21T09:38:47;100024.25;;;1.78;71.86
51715;BME280;39115;59.332;18.034;2023-02-21T09:41:10;100030.34;;;1.78;71.82
51715;BME280;39115;59.332;18.034;2023-02-21T09:43:37;100040.72;;;1.80;71.70
51715;BME280;39115;59.332;18.034;2023-02-21T09:46:01;100044.22;;;1.80;71.75
51715;BME280;39115;59.332;18.034;2023-02-21T09:48:23;100052.00;;;1.82;71.55
51715;BME280;39115;59.332;18.034;2023-02-21T09:50:51;100062.31;;;1.85;71.43
51715;BME280;39115;59.332;18.034;2023-02-21T09:53:17;100060.34;;;1.88;71.34
51715;BME280;39115;59.332;18.034;2023-02-21T09:55:38;100060.34;;;1.88;71.41
51715;BME280;39115;59.332;18.034;2023-02-21T09:58:00;100075.03;;;1.91;71.00
51715;BME280;39115;59.332;18.034;2023-02-21T10:00:28;100079.44;;;1.90;71.10
51715;BME280;39115;59.332;18.034;2023-02-21T10:13:59;100114.94;;;2.11;70.62
51715;BME280;39115;59.332;18.034;2023-02-21T10:16:31;100112.66;;;2.33;70.04
51715;BME280;39115;59.332;18.034;2023-02-21T10:21:44;100138.78;;;2.64;69.80
51715;BME280;39115;59.332;18.034;2023-02-21T10:24:25;100136.19;;;2.77;69.73
51715;BME280;39115;59.332;18.034;2023-02-21T10:26:59;100152.31;;;2.85;69.65
51715;BME280;39115;59.332;18.034;2023-02-21T10:29:24;100156.44;;;2.89;69.44
51715;BME280;39115;59.332;18.034;2023-02-21T10:31:45;100166.28;;;2.85;69.17
51715;BME280;39115;59.332;18.034;2023-02-21T10:34:23;100169.22;;;2.81;69.23
51715;BME280;39115;59.332;18.034;2023-02-21T10:36:46;100179.94;;;2.78;68.95
51715;BME280;39115;59.332;18.034;2023-02-21T10:41:29;100188.13;;;2.73;68.99
51715;BME280;39115;59.332;18.034;2023-02-21T10:44:01;100190.09;;;2.69;68.76
51715;BME280;39115;59.332;18.034;2023-02-21T10:46:27;100199.13;;;2.65;68.92
51715;BME280;39115;59.332;18.034;2023-02-21T10:48:51;100201.00;;;2.63;69.15
51715;BME280;39115;59.332;18.034;2023-02-21T10:51:15;100204.47;;;2.64;69.14
51715;BME280;39115;59.332;18.034;2023-02-21T10:53:38;100204.97;;;2.56;69.03
51715;BME280;39115;59.332;18.034;2023-02-21T10:58:38;100231.25;;;2.42;69.28
51715;BME280;39115;59.332;18.034;2023-02-21T11:01:14;100236.81;;;2.37;69.33
51715;BME280;39115;59.332;18.034;2023-02-21T11:03:36;100245.78;;;2.33;69.03
51715;BME280;39115;59.332;18.034;2023-02-21T11:06:02;100258.66;;;2.23;69.32
51715;BME280;39115;59.332;18.034;2023-02-21T11:08:43;100264.94;;;2.20;69.54
51715;BME280;39115;59.332;18.034;2023-02-21T11:11:04;100266.63;;;2.21;69.21
51715;BME280;39115;59.332;18.034;2023-02-21T11:13:25;100276.94;;;2.25;69.19
51715;BME280;39115;59.332;18.034;2023-02-21T11:15:47;100290.56;;;2.31;69.05
51715;BME280;39115;59.332;18.034;2023-02-21T11:18:14;100303.22;;;2.39;68.86
51715;BME280;39115;59.332;18.034;2023-02-21T11:20:36;100304.13;;;2.38;68.73
51715;BME280;39115;59.332;18.034;2023-02-21T11:22:56;100315.69;;;2.35;68.51
51715;BME280;39115;59.332;18.034;2023-02-21T11:25:27;100324.78;;;2.30;68.43
51715;BME280;39115;59.332;18.034;2023-02-21T11:30:24;100337.91;;;2.30;68.41
51715;BME280;39115;59.332;18.034;2023-02-21T11:32:50;100338.22;;;2.25;68.01
51715;BME280;39115;59.332;18.034;2023-02-21T11:38:02;100347.34;;;2.18;68.34
51715;BME280;39115;59.332;18.034;2023-02-21T11:43:26;100356.84;;;2.20;68.11
51715;BME280;39115;59.332;18.034;2023-02-21T11:46:09;100377.94;;;2.19;68.04
51715;BME280;39115;59.332;18.034;2023-02-21T11:48:38;100378.88;;;2.18;67.87
51715;BME280;39115;59.332;18.034;2023-02-21T11:51:15;100391.66;;;2.24;67.77
51715;BME280;39115;59.332;18.034;2023-02-21T11:53:42;100388.94;;;2.26;67.68
51715;BME280;39115;59.332;18.034;2023-02-21T11:58:33;100406.56;;;2.24;67.78
51715;BME280;39115;59.332;18.034;2023-02-21T12:01:06;100410.22;;;2.21;67.53
51715;BME280;39115;59.332;18.034;2023-02-21T12:03:50;100424.38;;;2.18;67.85
51715;BME280;39115;59.332;18.034;2023-02-21T12:06:34;100428.88;;;2.16;67.79
51715;BME280;39115;59.332;18.034;2023-02-21T12:22:46;100479.47;;;2.04;67.43
51715;BME280;39115;59.332;18.034;2023-02-21T12:25:26;100477.94;;;2.00;67.40
51715;BME280;39115;59.332;18.034;2023-02-21T12:28:03;100492.00;;;1.99;67.48
51715;BME280;39115;59.332;18.034;2023-02-21T12:36:47;100505.31;;;1.96;67.35
51715;BME280;39115;59.332;18.034;2023-02-21T12:39:15;100505.97;;;1.99;67.23
51715;BME280;39115;59.332;18.034;2023-02-21T12:42:18;100516.59;;;1.98;67.49
51715;BME280;39115;59.332;18.034;2023-02-21T12:50:44;100543.06;;;1.77;67.41
51715;BME280;39115;59.332;18.034;2023-02-21T12:53:25;100544.56;;;1.65;67.67
51715;BME280;39115;59.332;18.034;2023-02-21T12:56:01;100557.19;;;1.58;67.71
51715;BME280;39115;59.332;18.034;2023-02-21T12:58:30;100561.97;;;1.50;67.47
51715;BME280;39115;59.332;18.034;2023-02-21T13:04:43;100569.97;;;1.31;67.81
51715;BME280;39115;59.332;18.034;2023-02-21T13:09:27;100579.81;;;1.26;67.99
51715;BME280;39115;59.332;18.034;2023-02-21T13:12:11;100582.31;;;1.29;68.21
51715;BME280;39115;59.332;18.034;2023-02-21T13:14:44;100592.47;;;1.35;68.03
51715;BME280;39115;59.332;18.034;2023-02-21T13:17:12;100594.94;;;1.38;67.83
51715;BME280;39115;59.332;18.034;2023-02-21T13:20:20;100592.31;;;1.38;67.69
51715;BME280;39115;59.332;18.034;2023-02-21T13:25:36;100611.63;;;1.37;67.82
51715;BME280;39115;59.332;18.034;2023-02-21T13:28:08;100607.44;;;1.33;67.71
51715;BME280;39115;59.332;18.034;2023-02-21T13:30:41;100608.38;;;1.32;67.43
51715;BME280;39115;59.332;18.034;2023-02-21T13:33:06;100611.94;;;1.31;67.64
51715;BME280;39115;59.332;18.034;2023-02-21T13:35:32;100616.50;;;1.28;67.35
51715;BME280;39115;59.332;18.034;2023-02-21T13:37:54;100637.63;;;1.24;67.52
51715;BME280;39115;59.332;18.034;2023-02-21T13:40:20;100640.69;;;1.15;67.31
51715;BME280;39115;59.332;18.034;2023-02-21T13:42:44;100655.91;;;1.08;67.84
51715;BME280;39115;59.332;18.034;2023-02-21T13:45:37;100655.03;;;1.08;67.94
51715;BME280;39115;59.332;18.034;2023-02-21T13:53:24;100663.19;;;1.02;67.40
51715;BME280;39115;59.332;18.034;2023-02-21T13:58:35;100665.03;;;1.00;67.91
51715;BME280;39115;59.332;18.034;2023-02-21T14:01:19;100681.09;;;0.93;67.44
51715;BME280;39115;59.332;18.034;2023-02-21T14:03:42;100696.47;;;0.82;68.09
51715;BME280;39115;59.332;18.034;2023-02-21T14:08:29;100706.63;;;0.71;68.09
51715;BME280;39115;59.332;18.034;2023-02-21T14:13:48;100701.94;;;0.58;67.88
51715;BME280;39115;59.332;18.034;2023-02-21T14:16:18;100703.63;;;0.59;67.86
51715;BME280;39115;59.332;18.034;2023-02-21T14:21:21;100709.16;;;0.53;67.65
51715;BME280;39115;59.332;18.034;2023-02-21T14:27:31;100725.16;;;0.47;67.88
51715;BME280;39115;59.332;18.034;2023-02-21T14:29:15;100727.91;;;0.44;67.45
51715;BME280;39115;59.332;18.034;2023-02-21T14:31:54;100739.38;;;0.41;67.84
51715;BME280;39115;59.332;18.034;2023-02-21T14:36:48;100751.84;;;0.36;67.67
51715;BME280;39115;59.332;18.034;2023-02-21T14:39:09;100755.19;;;0.40;67.61
51715;BME280;39115;59.332;18.034;2023-02-21T14:41:42;100768.06;;;0.44;67.89